sensor_id;sensor_type;location;lat;lon;timestamp;P1;durP1;ratioP1;P2;durP2;ratioP2
79410;SDS011;69635;50.964;6.948;2023-04-28T00:00:18;5.75;;;2.42;;
79410;SDS011;69635;50.964;6.948;2023-04-28T00:02:44;8.70;;;2.50;;
79410;SDS011;69635;50.964;6.948;2023-04-28T00:05:12;5.30;;;2.85;;
79410;SDS011;69635;50.964;6.948;2023-04-28T00:07:37;5.15;;;2.70;;
79410;SDS011;69635;50.964;6.948;2023-04-28T00:10:02;5.97;;;2.50;;
79410;SDS011;69635;50.964;6.948;2023-04-28T00:12:28;6.03;;;2.50;;
79410;SDS011;69635;50.964;6.948;2023-04-28T00:14:53;3.72;;;2.30;;
79410;SDS011;69635;50.964;6.948;2023-04-28T00:17:19;4.40;;;2.13;;
79410;SDS011;69635;50.964;6.948;2023-04-28T00:19:44;4.70;;;2.20;;
79410;SDS011;69635;50.964;6.948;2023-04-28T00:22:10;7.25;;;2.63;;
79410;SDS011;69635;50.964;6.948;2023-04-28T00:24:35;4.50;;;2.33;;
79410;SDS011;69635;50.964;6.948;2023-04-28T00:27:01;7.45;;;2.65;;
79410;SDS011;69635;50.964;6.948;2023-04-28T00:29:27;5.05;;;2.35;;
79410;SDS011;69635;50.964;6.948;2023-04-28T00:31:53;5.45;;;2.53;;
79410;SDS011;69635;50.964;6.948;2023-04-28T00:34:18;3.55;;;2.55;;
79410;SDS011;69635;50.964;6.948;2023-04-28T00:36:43;6.72;;;2.72;;
79410;SDS011;69635;50.964;6.948;2023-04-28T00:39:09;5.13;;;2.75;;
79410;SDS011;69635;50.964;6.948;2023-04-28T00:41:34;6.45;;;2.85;;
79410;SDS011;69635;50.964;6.948;2023-04-28T00:43:59;6.88;;;2.60;;
79410;SDS011;69635;50.964;6.948;2023-04-28T00:46:31;4.13;;;2.95;;
79410;SDS011;69635;50.964;6.948;2023-04-28T00:48:57;4.95;;;2.45;;
79410;SDS011;69635;50.964;6.948;2023-04-28T00:51:23;5.70;;;2.47;;
79410;SDS011;69635;50.964;6.948;2023-04-28T00:53:49;4.10;;;2.60;;
79410;SDS011;69635;50.964;6.948;2023-04-28T00:56:15;6.28;;;2.53;;
79410;SDS011;69635;50.964;6.948;2023-04-28T00:58:41;5.20;;;2.50;;
79410;SDS011;69635;50.964;6.948;2023-04-28T01:01:08;9.82;;;3.08;;
79410;SDS011;69635;50.964;6.948;2023-04-28T01:03:35;5.82;;;2.65;;
79410;SDS011;69635;50.964;6.948;2023-04-28T01:06:05;9.02;;;2.70;;
79410;SDS011;69635;50.964;6.948;2023-04-28T01:08:32;4.50;;;2.70;;
79410;SDS011;69635;50.964;6.948;2023-04-28T01:10:58;7.85;;;3.42;;
79410;SDS011;69635;50.964;6.948;2023-04-28T01:13:24;6.00;;;2.90;;
79410;SDS011;69635;50.964;6.948;2023-04-28T01:15:50;5.68;;;3.10;;
79410;SDS011;69635;50.964;6.948;2023-04-28T01:18:16;6.10;;;3.05;;
79410;SDS011;69635;50.964;6.948;2023-04-28T01:20:42;6.97;;;2.97;;
79410;SDS011;69635;50.964;6.948;2023-04-28T01:23:14;5.63;;;2.80;;
79410;SDS011;69635;50.964;6.948;2023-04-28T01:25:41;6.13;;;2.88;;
79410;SDS011;69635;50.964;6.948;2023-04-28T01:28:07;8.20;;;3.22;;
79410;SDS011;69635;50.964;6.948;2023-04-28T01:30:33;5.88;;;3.20;;
79410;SDS011;69635;50.964;6.948;2023-04-28T01:32:59;6.80;;;3.90;;
79410;SDS011;69635;50.964;6.948;2023-04-28T01:35:25;6.78;;;3.33;;
79410;SDS011;69635;50.964;6.948;2023-04-28T01:37:50;5.40;;;3.50;;
79410;SDS011;69635;50.964;6.948;2023-04-28T01:40:16;7.72;;;4.05;;
79410;SDS011;69635;50.964;6.948;2023-04-28T01:42:41;10.05;;;4.38;;
79410;SDS011;69635;50.964;6.948;2023-04-28T01:45:07;7.13;;;3.40;;
79410;SDS011;69635;50.964;6.948;2023-04-28T01:47:33;8.68;;;3.92;;
79410;SDS011;69635;50.964;6.948;2023-04-28T01:49:58;6.32;;;3.85;;
79410;SDS011;69635;50.964;6.948;2023-04-28T01:52:24;6.30;;;3.83;;
79410;SDS011;69635;50.964;6.948;2023-04-28T01:57:52;10.43;;;3.75;;
79410;SDS011;69635;50.964;6.948;2023-04-28T02:00:17;4.78;;;3.67;;
79410;SDS011;69635;50.964;6.948;2023-04-28T02:02:43;10.27;;;4.32;;
79410;SDS011;69635;50.964;6.948;2023-04-28T02:05:08;9.10;;;3.97;;
79410;SDS011;69635;50.964;6.948;2023-04-28T02:07:33;7.82;;;4.10;;
79410;SDS011;69635;50.964;6.948;2023-04-28T02:09:59;7.05;;;3.83;;
79410;SDS011;69635;50.964;6.948;2023-04-28T02:12:24;9.55;;;3.97;;
79410;SDS011;69635;50.964;6.948;2023-04-28T02:14:50;7.47;;;4.32;;
79410;SDS011;69635;50.964;6.948;2023-04-28T02:17:15;6.15;;;4.30;;
79410;SDS011;69635;50.964;6.948;2023-04-28T02:19:40;6.75;;;3.70;;
79410;SDS011;69635;50.964;6.948;2023-04-28T02:22:06;7.88;;;3.67;;
79410;SDS011;69635;50.964;6.948;2023-04-28T02:24:35;5.47;;;3.53;;
79410;SDS011;69635;50.964;6.948;2023-04-28T02:27:01;7.95;;;4.18;;
79410;SDS011;69635;50.964;6.948;2023-04-28T02:29:28;7.18;;;3.80;;
79410;SDS011;69635;50.964;6.948;2023-04-28T02:31:54;7.75;;;3.50;;
79410;SDS011;69635;50.964;6.948;2023-04-28T02:34:19;7.13;;;4.32;;
79410;SDS011;69635;50.964;6.948;2023-04-28T02:36:45;7.13;;;4.05;;
79410;SDS011;69635;50.964;6.948;2023-04-28T02:39:12;9.13;;;4.55;;
79410;SDS011;69635;50.964;6.948;2023-04-28T02:41:37;6.55;;;4.25;;
79410;SDS011;69635;50.964;6.948;2023-04-28T02:44:03;8.20;;;4.05;;
79410;SDS011;69635;50.964;6.948;2023-04-28T02:46:31;10.05;;;4.32;;
79410;SDS011;69635;50.964;6.948;2023-04-28T02:48:57;5.68;;;3.45;;
79410;SDS011;69635;50.964;6.948;2023-04-28T02:51:22;6.65;;;4.28;;
79410;SDS011;69635;50.964;6.948;2023-04-28T02:53:47;9.13;;;4.82;;
79410;SDS011;69635;50.964;6.948;2023-04-28T02:56:13;6.47;;;4.32;;
79410;SDS011;69635;50.964;6.948;2023-04-28T02:58:38;12.82;;;4.25;;
79410;SDS011;69635;50.964;6.948;2023-04-28T03:01:06;5.78;;;4.18;;
79410;SDS011;69635;50.964;6.948;2023-04-28T03:03:32;7.78;;;3.85;;
79410;SDS011;69635;50.964;6.948;2023-04-28T03:05:57;7.38;;;4.22;;
79410;SDS011;69635;50.964;6.948;2023-04-28T03:08:23;6.05;;;4.20;;
79410;SDS011;69635;50.964;6.948;2023-04-28T03:10:48;6.68;;;4.15;;
79410;SDS011;69635;50.964;6.948;2023-04-28T03:13:13;8.23;;;4.45;;
79410;SDS011;69635;50.964;6.948;2023-04-28T03:15:39;6.20;;;3.90;;
79410;SDS011;69635;50.964;6.948;2023-04-28T03:18:04;8.02;;;4.32;;
79410;SDS011;69635;50.964;6.948;2023-04-28T03:20:30;8.35;;;3.60;;
79410;SDS011;69635;50.964;6.948;2023-04-28T03:22:55;7.35;;;4.30;;
79410;SDS011;69635;50.964;6.948;2023-04-28T03:25:21;7.13;;;3.83;;
79410;SDS011;69635;50.964;6.948;2023-04-28T03:27:49;7.47;;;4.07;;
79410;SDS011;69635;50.964;6.948;2023-04-28T03:30:14;7.43;;;3.80;;
79410;SDS011;69635;50.964;6.948;2023-04-28T03:32:40;6.68;;;4.28;;
79410;SDS011;69635;50.964;6.948;2023-04-28T03:35:05;8.93;;;3.97;;
79410;SDS011;69635;50.964;6.948;2023-04-28T03:37:31;8.25;;;3.95;;
79410;SDS011;69635;50.964;6.948;2023-04-28T03:39:56;8.40;;;4.18;;
79410;SDS011;69635;50.964;6.948;2023-04-28T03:42:22;9.65;;;4.72;;
79410;SDS011;69635;50.964;6.948;2023-04-28T03:44:47;7.75;;;4.68;;
79410;SDS011;69635;50.964;6.948;2023-04-28T03:47:12;7.47;;;4.78;;
79410;SDS011;69635;50.964;6.948;2023-04-28T03:49:38;5.75;;;3.90;;
79410;SDS011;69635;50.964;6.948;2023-04-28T03:52:03;6.93;;;4.32;;
79410;SDS011;69635;50.964;6.948;2023-04-28T03:54:29;7.32;;;4.60;;
79410;SDS011;69635;50.964;6.948;2023-04-28T03:56:55;7.57;;;4.90;;
79410;SDS011;69635;50.964;6.948;2023-04-28T03:59:20;7.28;;;5.00;;
79410;SDS011;69635;50.964;6.948;2023-04-28T04:01:46;7.20;;;4.85;;
79410;SDS011;69635;50.964;6.948;2023-04-28T04:04:11;7.53;;;5.32;;
79410;SDS011;69635;50.964;6.948;2023-04-28T04:06:36;8.93;;;5.43;;
79410;SDS011;69635;50.964;6.948;2023-04-28T04:09:02;9.25;;;5.00;;
79410;SDS011;69635;50.964;6.948;2023-04-28T04:11:27;8.35;;;4.95;;
79410;SDS011;69635;50.964;6.948;2023-04-28T04:13:53;8.32;;;5.13;;
79410;SDS011;69635;50.964;6.948;2023-04-28T04:16:18;13.23;;;6.40;;
79410;SDS011;69635;50.964;6.948;2023-04-28T04:18:43;8.95;;;5.20;;
79410;SDS011;69635;50.964;6.948;2023-04-28T04:21:09;9.63;;;4.90;;
79410;SDS011;69635;50.964;6.948;2023-04-28T04:23:34;7.80;;;4.32;;
79410;SDS011;69635;50.964;6.948;2023-04-28T04:26:00;7.60;;;4.97;;
79410;SDS011;69635;50.964;6.948;2023-04-28T04:28:25;9.18;;;5.25;;
79410;SDS011;69635;50.964;6.948;2023-04-28T04:30:50;8.70;;;4.82;;
79410;SDS011;69635;50.964;6.948;2023-04-28T04:33:16;7.32;;;4.68;;
79410;SDS011;69635;50.964;6.948;2023-04-28T04:35:41;9.85;;;4.60;;
79410;SDS011;69635;50.964;6.948;2023-04-28T04:38:07;9.32;;;4.93;;
79410;SDS011;69635;50.964;6.948;2023-04-28T04:40:32;8.25;;;4.30;;
79410;SDS011;69635;50.964;6.948;2023-04-28T04:42:57;9.73;;;4.82;;
79410;SDS011;69635;50.964;6.948;2023-04-28T04:45:23;13.13;;;5.50;;
79410;SDS011;69635;50.964;6.948;2023-04-28T04:47:49;10.40;;;5.18;;
79410;SDS011;69635;50.964;6.948;2023-04-28T04:50:14;9.13;;;5.05;;
79410;SDS011;69635;50.964;6.948;2023-04-28T04:52:40;9.02;;;4.90;;
79410;SDS011;69635;50.964;6.948;2023-04-28T04:55:05;6.40;;;4.35;;
79410;SDS011;69635;50.964;6.948;2023-04-28T04:57:31;10.55;;;4.70;;
79410;SDS011;69635;50.964;6.948;2023-04-28T04:59:57;8.20;;;4.28;;
79410;SDS011;69635;50.964;6.948;2023-04-28T05:02:22;8.65;;;5.20;;
79410;SDS011;69635;50.964;6.948;2023-04-28T05:04:47;12.15;;;4.90;;
79410;SDS011;69635;50.964;6.948;2023-04-28T05:07:16;12.25;;;4.68;;
79410;SDS011;69635;50.964;6.948;2023-04-28T05:09:41;9.45;;;5.13;;
79410;SDS011;69635;50.964;6.948;2023-04-28T05:12:07;8.25;;;4.57;;
79410;SDS011;69635;50.964;6.948;2023-04-28T05:14:32;10.00;;;4.85;;
79410;SDS011;69635;50.964;6.948;2023-04-28T05:16:57;5.55;;;4.15;;
79410;SDS011;69635;50.964;6.948;2023-04-28T05:19:23;8.93;;;4.30;;
79410;SDS011;69635;50.964;6.948;2023-04-28T05:21:48;6.60;;;4.32;;
79410;SDS011;69635;50.964;6.948;2023-04-28T05:24:16;7.85;;;4.30;;
79410;SDS011;69635;50.964;6.948;2023-04-28T05:26:41;12.68;;;5.63;;
79410;SDS011;69635;50.964;6.948;2023-04-28T05:29:07;8.27;;;4.75;;
79410;SDS011;69635;50.964;6.948;2023-04-28T05:31:32;7.13;;;4.32;;
79410;SDS011;69635;50.964;6.948;2023-04-28T05:33:58;12.00;;;4.65;;
79410;SDS011;69635;50.964;6.948;2023-04-28T05:36:23;9.45;;;4.35;;
79410;SDS011;69635;50.964;6.948;2023-04-28T05:38:48;10.35;;;4.57;;
79410;SDS011;69635;50.964;6.948;2023-04-28T05:41:14;8.60;;;4.40;;
79410;SDS011;69635;50.964;6.948;2023-04-28T05:43:39;8.18;;;4.30;;
79410;SDS011;69635;50.964;6.948;2023-04-28T05:46:05;8.48;;;4.68;;
79410;SDS011;69635;50.964;6.948;2023-04-28T05:48:30;7.25;;;4.30;;
79410;SDS011;69635;50.964;6.948;2023-04-28T05:50:56;9.38;;;5.10;;
79410;SDS011;69635;50.964;6.948;2023-04-28T05:53:21;11.55;;;4.90;;
79410;SDS011;69635;50.964;6.948;2023-04-28T05:55:46;8.02;;;5.18;;
79410;SDS011;69635;50.964;6.948;2023-04-28T05:58:12;7.53;;;5.38;;
79410;SDS011;69635;50.964;6.948;2023-04-28T06:00:38;7.90;;;5.07;;
79410;SDS011;69635;50.964;6.948;2023-04-28T06:03:03;9.75;;;5.95;;
79410;SDS011;69635;50.964;6.948;2023-04-28T06:05:29;7.57;;;4.88;;
79410;SDS011;69635;50.964;6.948;2023-04-28T06:07:54;11.88;;;4.95;;
79410;SDS011;69635;50.964;6.948;2023-04-28T06:10:21;8.40;;;4.53;;
79410;SDS011;69635;50.964;6.948;2023-04-28T06:12:50;8.48;;;4.72;;
79410;SDS011;69635;50.964;6.948;2023-04-28T06:15:15;8.38;;;4.70;;
79410;SDS011;69635;50.964;6.948;2023-04-28T06:17:41;7.60;;;5.07;;
79410;SDS011;69635;50.964;6.948;2023-04-28T06:20:06;8.40;;;5.20;;
79410;SDS011;69635;50.964;6.948;2023-04-28T06:22:34;7.40;;;4.55;;
79410;SDS011;69635;50.964;6.948;2023-04-28T06:24:59;8.63;;;4.95;;
79410;SDS011;69635;50.964;6.948;2023-04-28T06:27:25;11.52;;;4.63;;
79410;SDS011;69635;50.964;6.948;2023-04-28T06:29:50;7.80;;;4.45;;
79410;SDS011;69635;50.964;6.948;2023-04-28T06:32:16;7.65;;;4.22;;
79410;SDS011;69635;50.964;6.948;2023-04-28T06:34:41;6.90;;;4.38;;
79410;SDS011;69635;50.964;6.948;2023-04-28T06:37:06;6.53;;;4.25;;
79410;SDS011;69635;50.964;6.948;2023-04-28T06:39:32;7.93;;;4.60;;
79410;SDS011;69635;50.964;6.948;2023-04-28T06:41:57;8.75;;;4.38;;
79410;SDS011;69635;50.964;6.948;2023-04-28T06:44:23;7.88;;;4.78;;
79410;SDS011;69635;50.964;6.948;2023-04-28T06:46:48;5.78;;;4.40;;
79410;SDS011;69635;50.964;6.948;2023-04-28T06:49:14;7.97;;;4.32;;
79410;SDS011;69635;50.964;6.948;2023-04-28T06:51:41;6.63;;;4.75;;
79410;SDS011;69635;50.964;6.948;2023-04-28T06:54:07;7.03;;;4.50;;
79410;SDS011;69635;50.964;6.948;2023-04-28T06:56:32;7.50;;;4.53;;
79410;SDS011;69635;50.964;6.948;2023-04-28T06:58:59;10.88;;;4.25;;
79410;SDS011;69635;50.964;6.948;2023-04-28T07:01:25;9.32;;;4.88;;
79410;SDS011;69635;50.964;6.948;2023-04-28T07:03:50;6.22;;;4.55;;
79410;SDS011;69635;50.964;6.948;2023-04-28T07:06:16;7.82;;;4.72;;
79410;SDS011;69635;50.964;6.948;2023-04-28T07:08:42;8.60;;;4.25;;
79410;SDS011;69635;50.964;6.948;2023-04-28T07:11:07;7.60;;;4.90;;
79410;SDS011;69635;50.964;6.948;2023-04-28T07:13:33;9.93;;;4.38;;
79410;SDS011;69635;50.964;6.948;2023-04-28T07:15:59;8.68;;;4.63;;
79410;SDS011;69635;50.964;6.948;2023-04-28T07:18:24;6.88;;;4.85;;
79410;SDS011;69635;50.964;6.948;2023-04-28T07:20:49;10.43;;;5.13;;
79410;SDS011;69635;50.964;6.948;2023-04-28T07:23:15;7.43;;;4.75;;
79410;SDS011;69635;50.964;6.948;2023-04-28T07:25:41;8.60;;;4.43;;
79410;SDS011;69635;50.964;6.948;2023-04-28T07:28:07;9.07;;;4.70;;
79410;SDS011;69635;50.964;6.948;2023-04-28T07:30:32;10.48;;;4.30;;
79410;SDS011;69635;50.964;6.948;2023-04-28T07:32:58;6.55;;;4.40;;
79410;SDS011;69635;50.964;6.948;2023-04-28T07:35:24;7.70;;;4.28;;
79410;SDS011;69635;50.964;6.948;2023-04-28T07:37:50;11.82;;;4.40;;
79410;SDS011;69635;50.964;6.948;2023-04-28T07:40:16;9.90;;;4.85;;
79410;SDS011;69635;50.964;6.948;2023-04-28T07:42:41;8.05;;;5.07;;
79410;SDS011;69635;50.964;6.948;2023-04-28T07:45:10;6.03;;;4.43;;
79410;SDS011;69635;50.964;6.948;2023-04-28T07:47:36;6.93;;;4.57;;
79410;SDS011;69635;50.964;6.948;2023-04-28T07:50:02;7.00;;;4.22;;
79410;SDS011;69635;50.964;6.948;2023-04-28T07:52:29;6.53;;;4.50;;
79410;SDS011;69635;50.964;6.948;2023-04-28T07:54:55;7.22;;;4.30;;
79410;SDS011;69635;50.964;6.948;2023-04-28T07:57:20;6.28;;;3.53;;
79410;SDS011;69635;50.964;6.948;2023-04-28T07:59:46;6.45;;;4.03;;
79410;SDS011;69635;50.964;6.948;2023-04-28T08:02:11;8.23;;;4.28;;
79410;SDS011;69635;50.964;6.948;2023-04-28T08:04:38;6.47;;;4.07;;
79410;SDS011;69635;50.964;6.948;2023-04-28T08:07:03;5.88;;;4.40;;
79410;SDS011;69635;50.964;6.948;2023-04-28T08:09:29;7.18;;;4.40;;
79410;SDS011;69635;50.964;6.948;2023-04-28T08:11:55;8.23;;;4.40;;
79410;SDS011;69635;50.964;6.948;2023-04-28T08:14:20;8.60;;;4.07;;
79410;SDS011;69635;50.964;6.948;2023-04-28T08:16:46;9.68;;;4.28;;
79410;SDS011;69635;50.964;6.948;2023-04-28T08:19:12;5.47;;;3.70;;
79410;SDS011;69635;50.964;6.948;2023-04-28T08:21:38;8.27;;;4.22;;
79410;SDS011;69635;50.964;6.948;2023-04-28T08:24:03;7.65;;;4.78;;
79410;SDS011;69635;50.964;6.948;2023-04-28T08:26:29;7.13;;;4.13;;
79410;SDS011;69635;50.964;6.948;2023-04-28T08:28:55;8.40;;;4.40;;
79410;SDS011;69635;50.964;6.948;2023-04-28T08:31:20;5.95;;;4.03;;
79410;SDS011;69635;50.964;6.948;2023-04-28T08:33:46;6.57;;;3.97;;
79410;SDS011;69635;50.964;6.948;2023-04-28T08:36:14;9.50;;;4.72;;
79410;SDS011;69635;50.964;6.948;2023-04-28T08:38:39;5.95;;;4.53;;
79410;SDS011;69635;50.964;6.948;2023-04-28T08:41:05;7.55;;;4.32;;
79410;SDS011;69635;50.964;6.948;2023-04-28T08:43:35;5.90;;;3.92;;
79410;SDS011;69635;50.964;6.948;2023-04-28T08:46:04;7.78;;;4.95;;
79410;SDS011;69635;50.964;6.948;2023-04-28T08:48:31;6.78;;;4.93;;
79410;SDS011;69635;50.964;6.948;2023-04-28T08:51:06;7.82;;;4.50;;
79410;SDS011;69635;50.964;6.948;2023-04-28T08:53:33;6.30;;;4.28;;
79410;SDS011;69635;50.964;6.948;2023-04-28T08:56:01;6.90;;;4.30;;
79410;SDS011;69635;50.964;6.948;2023-04-28T09:00:56;10.98;;;4.78;;
79410;SDS011;69635;50.964;6.948;2023-04-28T09:03:21;9.20;;;5.15;;
79410;SDS011;69635;50.964;6.948;2023-04-28T09:05:47;10.10;;;5.18;;
79410;SDS011;69635;50.964;6.948;2023-04-28T09:08:13;9.15;;;4.93;;
79410;SDS011;69635;50.964;6.948;2023-04-28T09:10:39;9.25;;;5.60;;
79410;SDS011;69635;50.964;6.948;2023-04-28T09:13:05;8.75;;;4.90;;
79410;SDS011;69635;50.964;6.948;2023-04-28T09:15:31;9.63;;;5.28;;
79410;SDS011;69635;50.964;6.948;2023-04-28T09:17:58;16.00;;;6.18;;
79410;SDS011;69635;50.964;6.948;2023-04-28T09:20:25;7.40;;;5.07;;
79410;SDS011;69635;50.964;6.948;2023-04-28T09:22:53;8.98;;;5.25;;
79410;SDS011;69635;50.964;6.948;2023-04-28T09:25:20;7.53;;;5.28;;
79410;SDS011;69635;50.964;6.948;2023-04-28T09:27:47;10.85;;;5.95;;
79410;SDS011;69635;50.964;6.948;2023-04-28T09:30:13;10.07;;;5.85;;
79410;SDS011;69635;50.964;6.948;2023-04-28T09:32:39;10.63;;;6.78;;
79410;SDS011;69635;50.964;6.948;2023-04-28T09:35:04;9.25;;;5.95;;
79410;SDS011;69635;50.964;6.948;2023-04-28T09:37:31;9.27;;;5.95;;
79410;SDS011;69635;50.964;6.948;2023-04-28T09:40:05;12.00;;;5.97;;
79410;SDS011;69635;50.964;6.948;2023-04-28T09:42:36;11.00;;;6.28;;
79410;SDS011;69635;50.964;6.948;2023-04-28T09:45:06;8.85;;;6.60;;
79410;SDS011;69635;50.964;6.948;2023-04-28T09:47:37;9.88;;;5.82;;
79410;SDS011;69635;50.964;6.948;2023-04-28T09:50:05;9.25;;;6.18;;
79410;SDS011;69635;50.964;6.948;2023-04-28T09:52:33;11.75;;;6.43;;
79410;SDS011;69635;50.964;6.948;2023-04-28T09:55:00;10.10;;;6.22;;
79410;SDS011;69635;50.964;6.948;2023-04-28T09:57:29;11.18;;;6.32;;
79410;SDS011;69635;50.964;6.948;2023-04-28T09:59:57;9.32;;;6.22;;
79410;SDS011;69635;50.964;6.948;2023-04-28T10:02:22;10.50;;;6.53;;
79410;SDS011;69635;50.964;6.948;2023-04-28T10:04:49;9.88;;;6.38;;
79410;SDS011;69635;50.964;6.948;2023-04-28T10:07:20;11.18;;;6.30;;
79410;SDS011;69635;50.964;6.948;2023-04-28T10:09:46;11.32;;;7.28;;
79410;SDS011;69635;50.964;6.948;2023-04-28T10:12:14;12.75;;;7.88;;
79410;SDS011;69635;50.964;6.948;2023-04-28T10:14:41;10.15;;;6.32;;
79410;SDS011;69635;50.964;6.948;2023-04-28T10:17:06;14.07;;;6.93;;
79410;SDS011;69635;50.964;6.948;2023-04-28T10:19:32;12.20;;;6.93;;
79410;SDS011;69635;50.964;6.948;2023-04-28T10:27:37;11.18;;;7.53;;
79410;SDS011;69635;50.964;6.948;2023-04-28T10:32:46;11.27;;;6.55;;
79410;SDS011;69635;50.964;6.948;2023-04-28T10:43:10;12.73;;;6.90;;
79410;SDS011;69635;50.964;6.948;2023-04-28T10:56:14;10.18;;;6.60;;
79410;SDS011;69635;50.964;6.948;2023-04-28T11:03:55;8.93;;;5.50;;
79410;SDS011;69635;50.964;6.948;2023-04-28T11:13:51;8.00;;;5.60;;
79410;SDS011;69635;50.964;6.948;2023-04-28T11:16:49;7.57;;;5.88;;
79410;SDS011;69635;50.964;6.948;2023-04-28T11:21:48;8.43;;;5.60;;
79410;SDS011;69635;50.964;6.948;2023-04-28T11:24:16;8.98;;;5.80;;
79410;SDS011;69635;50.964;6.948;2023-04-28T11:26:42;8.70;;;6.53;;
79410;SDS011;69635;50.964;6.948;2023-04-28T11:29:09;9.80;;;5.65;;
79410;SDS011;69635;50.964;6.948;2023-04-28T11:31:36;7.95;;;5.07;;
79410;SDS011;69635;50.964;6.948;2023-04-28T11:34:03;9.43;;;5.68;;
79410;SDS011;69635;50.964;6.948;2023-04-28T11:36:41;11.30;;;5.72;;
79410;SDS011;69635;50.964;6.948;2023-04-28T11:39:08;8.45;;;5.75;;
79410;SDS011;69635;50.964;6.948;2023-04-28T11:41:36;9.07;;;5.80;;
79410;SDS011;69635;50.964;6.948;2023-04-28T11:46:43;8.20;;;5.60;;
79410;SDS011;69635;50.964;6.948;2023-04-28T11:49:24;7.72;;;5.00;;
79410;SDS011;69635;50.964;6.948;2023-04-28T11:52:02;8.43;;;5.60;;
79410;SDS011;69635;50.964;6.948;2023-04-28T11:54:29;8.95;;;5.35;;
79410;SDS011;69635;50.964;6.948;2023-04-28T11:56:56;8.10;;;5.65;;
79410;SDS011;69635;50.964;6.948;2023-04-28T11:59:23;8.40;;;5.90;;
79410;SDS011;69635;50.964;6.948;2023-04-28T12:01:50;7.00;;;5.28;;
79410;SDS011;69635;50.964;6.948;2023-04-28T12:09:44;8.88;;;5.28;;
79410;SDS011;69635;50.964;6.948;2023-04-28T12:12:33;7.70;;;4.30;;
79410;SDS011;69635;50.964;6.948;2023-04-28T12:15:08;8.25;;;4.93;;
79410;SDS011;69635;50.964;6.948;2023-04-28T12:20:03;6.32;;;4.80;;
79410;SDS011;69635;50.964;6.948;2023-04-28T12:22:33;7.25;;;4.70;;
79410;SDS011;69635;50.964;6.948;2023-04-28T12:25:11;5.38;;;4.22;;
79410;SDS011;69635;50.964;6.948;2023-04-28T12:27:38;7.20;;;4.60;;
79410;SDS011;69635;50.964;6.948;2023-04-28T12:32:45;6.63;;;4.32;;
79410;SDS011;69635;50.964;6.948;2023-04-28T12:35:11;7.88;;;5.40;;
79410;SDS011;69635;50.964;6.948;2023-04-28T12:37:36;8.73;;;5.28;;
79410;SDS011;69635;50.964;6.948;2023-04-28T12:40:03;6.10;;;4.30;;
79410;SDS011;69635;50.964;6.948;2023-04-28T12:42:30;8.15;;;4.63;;
79410;SDS011;69635;50.964;6.948;2023-04-28T12:44:56;6.25;;;4.18;;
79410;SDS011;69635;50.964;6.948;2023-04-28T12:47:21;6.82;;;4.00;;
79410;SDS011;69635;50.964;6.948;2023-04-28T12:49:47;6.68;;;4.10;;
79410;SDS011;69635;50.964;6.948;2023-04-28T12:52:14;6.05;;;4.07;;
79410;SDS011;69635;50.964;6.948;2023-04-28T12:54:40;6.13;;;4.18;;
79410;SDS011;69635;50.964;6.948;2023-04-28T12:57:10;6.40;;;4.13;;
79410;SDS011;69635;50.964;6.948;2023-04-28T12:59:39;6.18;;;4.35;;
79410;SDS011;69635;50.964;6.948;2023-04-28T13:02:05;6.80;;;4.97;;
79410;SDS011;69635;50.964;6.948;2023-04-28T13:04:31;7.50;;;4.60;;
79410;SDS011;69635;50.964;6.948;2023-04-28T13:06:57;7.18;;;4.00;;
79410;SDS011;69635;50.964;6.948;2023-04-28T13:09:23;6.57;;;3.85;;
79410;SDS011;69635;50.964;6.948;2023-04-28T13:11:50;5.88;;;4.38;;
79410;SDS011;69635;50.964;6.948;2023-04-28T13:14:17;6.63;;;4.30;;
79410;SDS011;69635;50.964;6.948;2023-04-28T13:16:43;7.60;;;4.75;;
79410;SDS011;69635;50.964;6.948;2023-04-28T13:19:09;6.50;;;4.55;;
79410;SDS011;69635;50.964;6.948;2023-04-28T13:21:37;5.38;;;4.25;;
79410;SDS011;69635;50.964;6.948;2023-04-28T13:24:05;5.78;;;4.30;;
79410;SDS011;69635;50.964;6.948;2023-04-28T13:26:31;7.00;;;4.25;;
79410;SDS011;69635;50.964;6.948;2023-04-28T13:28:57;7.45;;;4.20;;
79410;SDS011;69635;50.964;6.948;2023-04-28T13:31:22;6.22;;;4.95;;
79410;SDS011;69635;50.964;6.948;2023-04-28T13:33:48;6.38;;;5.40;;
79410;SDS011;69635;50.964;6.948;2023-04-28T13:36:13;8.23;;;5.72;;
79410;SDS011;69635;50.964;6.948;2023-04-28T13:38:39;9.05;;;6.68;;
79410;SDS011;69635;50.964;6.948;2023-04-28T13:41:04;10.05;;;6.93;;
79410;SDS011;69635;50.964;6.948;2023-04-28T13:43:30;7.60;;;6.00;;
79410;SDS011;69635;50.964;6.948;2023-04-28T13:45:55;8.02;;;5.88;;
79410;SDS011;69635;50.964;6.948;2023-04-28T13:48:21;8.05;;;6.43;;
79410;SDS011;69635;50.964;6.948;2023-04-28T13:50:46;7.65;;;5.57;;
79410;SDS011;69635;50.964;6.948;2023-04-28T13:53:12;7.93;;;5.55;;
79410;SDS011;69635;50.964;6.948;2023-04-28T13:55:37;6.72;;;5.60;;
79410;SDS011;69635;50.964;6.948;2023-04-28T13:58:06;7.68;;;5.03;;
79410;SDS011;69635;50.964;6.948;2023-04-28T14:00:32;6.70;;;4.60;;
79410;SDS011;69635;50.964;6.948;2023-04-28T14:02:58;7.07;;;4.70;;
79410;SDS011;69635;50.964;6.948;2023-04-28T14:05:24;7.63;;;4.22;;
79410;SDS011;69635;50.964;6.948;2023-04-28T14:07:52;4.75;;;3.83;;
79410;SDS011;69635;50.964;6.948;2023-04-28T14:10:19;7.97;;;4.03;;
79410;SDS011;69635;50.964;6.948;2023-04-28T14:12:44;5.68;;;4.15;;
79410;SDS011;69635;50.964;6.948;2023-04-28T14:15:10;5.03;;;3.83;;
79410;SDS011;69635;50.964;6.948;2023-04-28T14:17:36;4.60;;;3.30;;
79410;SDS011;69635;50.964;6.948;2023-04-28T14:20:01;3.50;;;2.83;;
79410;SDS011;69635;50.964;6.948;2023-04-28T14:22:27;2.45;;;1.90;;
79410;SDS011;69635;50.964;6.948;2023-04-28T14:24:53;9.63;;;3.13;;
79410;SDS011;69635;50.964;6.948;2023-04-28T14:27:19;4.43;;;3.15;;
79410;SDS011;69635;50.964;6.948;2023-04-28T14:29:45;3.97;;;3.53;;
79410;SDS011;69635;50.964;6.948;2023-04-28T14:32:12;4.35;;;2.38;;
79410;SDS011;69635;50.964;6.948;2023-04-28T14:34:38;3.03;;;2.45;;
79410;SDS011;69635;50.964;6.948;2023-04-28T14:37:04;2.45;;;1.65;;
79410;SDS011;69635;50.964;6.948;2023-04-28T14:39:30;1.60;;;1.20;;
79410;SDS011;69635;50.964;6.948;2023-04-28T14:41:55;1.52;;;0.90;;
79410;SDS011;69635;50.964;6.948;2023-04-28T14:44:21;3.08;;;1.20;;
79410;SDS011;69635;50.964;6.948;2023-04-28T14:46:46;1.23;;;0.93;;
79410;SDS011;69635;50.964;6.948;2023-04-28T14:49:12;3.20;;;1.60;;
79410;SDS011;69635;50.964;6.948;2023-04-28T14:51:37;2.50;;;1.30;;
79410;SDS011;69635;50.964;6.948;2023-04-28T14:54:03;2.05;;;1.00;;
79410;SDS011;69635;50.964;6.948;2023-04-28T14:56:28;1.90;;;1.30;;
79410;SDS011;69635;50.964;6.948;2023-04-28T14:58:53;2.70;;;1.23;;
79410;SDS011;69635;50.964;6.948;2023-04-28T15:01:19;1.50;;;1.00;;
79410;SDS011;69635;50.964;6.948;2023-04-28T15:03:44;1.20;;;1.00;;
79410;SDS011;69635;50.964;6.948;2023-04-28T15:06:09;3.92;;;1.48;;
79410;SDS011;69635;50.964;6.948;2023-04-28T15:08:36;2.30;;;1.20;;
79410;SDS011;69635;50.964;6.948;2023-04-28T15:11:04;5.82;;;1.23;;
79410;SDS011;69635;50.964;6.948;2023-04-28T15:13:29;2.53;;;1.23;;
79410;SDS011;69635;50.964;6.948;2023-04-28T15:15:56;4.97;;;1.20;;
79410;SDS011;69635;50.964;6.948;2023-04-28T15:18:22;4.50;;;1.50;;
79410;SDS011;69635;50.964;6.948;2023-04-28T15:20:47;1.70;;;1.10;;
79410;SDS011;69635;50.964;6.948;2023-04-28T15:23:13;6.07;;;1.70;;
79410;SDS011;69635;50.964;6.948;2023-04-28T15:25:38;2.30;;;1.10;;
79410;SDS011;69635;50.964;6.948;2023-04-28T15:28:05;1.75;;;1.02;;
79410;SDS011;69635;50.964;6.948;2023-04-28T15:30:31;1.48;;;1.13;;
79410;SDS011;69635;50.964;6.948;2023-04-28T15:32:57;1.35;;;1.02;;
79410;SDS011;69635;50.964;6.948;2023-04-28T15:35:23;3.40;;;1.25;;
79410;SDS011;69635;50.964;6.948;2023-04-28T15:37:51;5.25;;;2.00;;
79410;SDS011;69635;50.964;6.948;2023-04-28T15:40:17;5.90;;;3.08;;